createdAt,value
2022-09-22T00:02:14.690Z,14.00
2022-09-22T00:12:46.696Z,15.50
2022-09-22T00:23:14.593Z,15.60
2022-09-22T00:33:42.763Z,19.00
2022-09-22T00:44:43.590Z,16.20
2022-09-22T00:55:17.132Z,17.90
2022-09-22T01:05:47.459Z,16.00
2022-09-22T01:16:27.080Z,16.10
2022-09-22T01:27:12.321Z,20.40
2022-09-22T01:37:50.318Z,22.50
2022-09-22T01:48:22.245Z,25.30
2022-09-22T01:58:53.899Z,23.60
2022-09-22T02:09:25.518Z,21.50
2022-09-22T02:19:53.648Z,25.80
2022-09-22T02:30:22.386Z,22.50
2022-09-22T02:41:01.362Z,22.50
2022-09-22T02:51:31.073Z,21.40
2022-09-22T03:01:59.042Z,21.10
2022-09-22T03:12:27.028Z,20.90
2022-09-22T03:22:54.834Z,19.10
2022-09-22T03:33:22.837Z,18.40
2022-09-22T03:43:50.979Z,17.70
2022-09-22T04:04:45.269Z,18.40
2022-09-22T04:15:13.735Z,14.20
2022-09-22T04:25:41.956Z,15.80
2022-09-22T04:36:10.536Z,14.40
2022-09-22T04:46:38.413Z,15.50
2022-09-22T04:57:06.807Z,16.50
2022-09-22T05:07:34.753Z,18.60
2022-09-22T05:18:02.497Z,21.10
2022-09-22T05:28:30.362Z,24.50
2022-09-22T05:38:58.316Z,23.20
2022-09-22T05:49:26.330Z,20.60
2022-09-22T05:59:54.398Z,15.90
2022-09-22T06:10:22.432Z,15.70
2022-09-22T06:20:50.425Z,16.30
2022-09-22T06:31:18.564Z,13.90
2022-09-22T06:52:15.323Z,16.20
2022-09-22T07:02:43.608Z,16.60
2022-09-22T07:23:39.486Z,16.10
2022-09-22T07:34:07.550Z,18.00
2022-09-22T07:44:52.891Z,15.40
2022-09-22T07:55:22.327Z,16.10
2022-09-22T08:05:52.431Z,13.90
2022-09-22T08:16:20.918Z,14.90
2022-09-22T08:26:50.330Z,12.20
2022-09-22T08:37:18.274Z,10.20
2022-09-22T08:48:09.103Z,8.70
2022-09-22T08:58:49.776Z,7.80
2022-09-22T09:09:40.669Z,4.90
2022-09-22T09:20:19.449Z,3.60
2022-09-22T09:30:51.504Z,9.10
2022-09-22T09:41:23.734Z,4.60
2022-09-22T09:51:55.143Z,3.90
2022-09-22T10:02:27.596Z,4.40
2022-09-22T10:12:57.033Z,3.50
2022-09-22T10:23:29.145Z,4.50
2022-09-22T10:33:59.089Z,2.90
2022-09-22T10:44:38.663Z,3.70
2022-09-22T10:55:20.470Z,5.00
2022-09-22T11:06:18.506Z,2.60
2022-09-22T11:17:16.129Z,4.70
2022-09-22T11:28:00.101Z,2.50
2022-09-22T11:38:43.810Z,4.00
2022-09-22T11:49:25.746Z,5.80
2022-09-22T11:59:57.953Z,3.40
2022-09-22T12:10:38.183Z,3.20
2022-09-22T12:21:15.879Z,3.00
2022-09-22T12:31:47.516Z,3.30
2022-09-22T12:42:23.823Z,3.50
2022-09-22T12:53:06.650Z,4.60
2022-09-22T13:03:51.364Z,4.80
2022-09-22T13:14:49.663Z,4.80
2022-09-22T13:25:22.567Z,6.10
2022-09-22T13:35:57.306Z,5.40
2022-09-22T13:46:30.225Z,4.60
2022-09-22T13:56:59.678Z,7.70
2022-09-22T14:07:31.038Z,5.50
2022-09-22T14:17:59.569Z,5.00
2022-09-22T14:28:31.088Z,6.60
2022-09-22T14:39:10.167Z,5.40
2022-09-22T14:49:42.555Z,11.00
2022-09-22T15:00:36.025Z,8.60
2022-09-22T15:11:03.955Z,9.30
2022-09-22T15:21:35.233Z,9.20
2022-09-22T15:32:04.571Z,6.40
2022-09-22T15:42:32.609Z,8.40
2022-09-22T15:53:00.501Z,10.00
2022-09-22T16:03:28.670Z,7.00
2022-09-22T16:13:58.351Z,7.20
2022-09-22T16:24:28.697Z,10.00
2022-09-22T16:34:56.840Z,14.80
2022-09-22T16:45:38.735Z,11.10
2022-09-22T16:56:07.036Z,10.20
2022-09-22T17:06:36.304Z,8.50
2022-09-22T17:17:06.808Z,8.50
2022-09-22T17:27:34.754Z,7.60
2022-09-22T17:48:47.935Z,8.40
2022-09-22T17:59:16.132Z,10.50
2022-09-22T18:09:44.665Z,15.10
2022-09-22T18:20:15.035Z,16.80
2022-09-22T18:30:43.526Z,16.80
2022-09-22T18:41:11.542Z,18.30
2022-09-22T18:51:42.764Z,11.50
2022-09-22T19:02:13.271Z,14.40
2022-09-22T19:12:41.495Z,18.70
2022-09-22T19:23:09.467Z,13.30
2022-09-22T19:33:37.672Z,16.00
2022-09-22T19:44:06.294Z,16.30
2022-09-22T19:54:34.507Z,22.50
2022-09-22T20:05:02.553Z,37.40
2022-09-22T20:15:30.475Z,24.30
2022-09-22T20:25:58.450Z,21.30
2022-09-22T20:36:26.533Z,21.30
2022-09-22T20:46:54.606Z,33.70
2022-09-22T20:57:22.611Z,26.90
2022-09-22T21:08:11.634Z,26.90
2022-09-22T21:18:41.003Z,42.60
2022-09-22T21:29:10.342Z,49.50
2022-09-22T21:39:38.176Z,39.00
2022-09-22T21:50:06.802Z,42.90
2022-09-22T22:00:51.083Z,36.50
2022-09-22T22:11:22.346Z,32.80
2022-09-22T22:21:51.487Z,37.10
2022-09-22T22:32:19.357Z,35.00
2022-09-22T22:42:47.406Z,33.60
2022-09-22T22:53:16.102Z,39.30
2022-09-22T23:03:46.158Z,31.00
2022-09-22T23:14:16.362Z,30.40
2022-09-22T23:24:44.626Z,30.80
2022-09-22T23:35:12.897Z,31.50
2022-09-22T23:45:40.915Z,34.10
2022-09-22T23:56:09.567Z,38.60
